Time;durP1;ratioP1;P1;durP2;ratioP2;P2;SDS_P1;SDS_P2;PMS_P1;PMS_P2;Temp;Humidity;BMP_temperature;BMP_pressure;BME280_temperature;BME280_humidity;BME280_pressure;Samples;Min_cycle;Max_cycle;Signal;HPM_P1;HPM_P2
2022/10/11 00:00:38;;;;;;;6.82;2.88;;;13.50;99.90;;;;;;5074193;28;20127;-70
2022/10/11 00:03:04;;;;;;;4.30;2.08;;;13.80;99.90;;;;;;5072644;28;20125;-71
2022/10/11 00:05:31;;;;;;;7.93;3.00;;;13.70;99.90;;;;;;5072535;28;20035;-71
2022/10/11 00:07:57;;;;;;;8.35;2.80;;;13.90;99.90;;;;;;5072630;28;20589;-76
2022/10/11 00:10:22;;;;;;;7.40;3.30;;;14.10;99.90;;;;;;5071918;28;20032;-71
2022/10/11 00:12:51;;;;;;;4.75;2.20;;;14.20;99.90;;;;;;5073622;28;20051;-71
2022/10/11 00:15:19;;;;;;;6.18;2.60;;;14.20;99.90;;;;;;5071838;28;21019;-71
2022/10/11 00:17:45;;;;;;;5.03;2.95;;;14.10;99.90;;;;;;5072405;28;20032;-71
2022/10/11 00:20:12;;;;;;;5.72;2.50;;;14.20;99.90;;;;;;5073673;28;20051;-71
2022/10/11 00:22:38;;;;;;;5.70;2.10;;;14.20;99.90;;;;;;5072545;28;20104;-71
2022/10/11 00:25:09;;;;;;;3.92;2.22;;;14.20;99.90;;;;;;5073899;28;20045;-76
2022/10/11 00:27:36;;;;;;;7.43;2.70;;;14.20;99.90;;;;;;5073838;28;20040;-71
2022/10/11 00:30:03;;;;;;;5.45;2.53;;;14.20;99.90;;;;;;5072492;28;20131;-71
2022/10/11 00:32:28;;;;;;;4.85;2.60;;;14.20;99.90;;;;;;5072145;28;20044;-71
2022/10/11 00:34:55;;;;;;;12.13;2.90;;;14.20;99.90;;;;;;5073501;28;20040;-71
2022/10/11 00:37:21;;;;;;;4.38;2.25;;;14.10;99.90;;;;;;5072268;28;20047;-75
2022/10/11 00:39:48;;;;;;;4.57;2.75;;;14.00;99.90;;;;;;5073851;28;20431;-71
2022/10/11 00:42:15;;;;;;;4.78;2.63;;;14.10;99.90;;;;;;5073659;28;20048;-71
2022/10/11 00:44:46;;;;;;;4.65;2.40;;;14.20;99.90;;;;;;5074110;28;20052;-75
2022/10/11 00:47:19;;;;;;;7.25;2.28;;;14.30;99.90;;;;;;5072991;28;20124;-71
2022/10/11 00:49:48;;;;;;;3.17;2.17;;;14.50;99.90;;;;;;5073519;28;20086;-71
2022/10/11 00:52:21;;;;;;;6.20;2.45;;;14.40;99.90;;;;;;5072180;28;20033;-71
2022/10/11 00:54:48;;;;;;;5.18;2.50;;;14.40;99.90;;;;;;5076484;28;20036;-71
2022/10/11 00:57:21;;;;;;;4.82;2.65;;;14.40;99.90;;;;;;5077599;28;20094;-72
2022/10/11 00:59:52;;;;;;;3.55;2.00;;;14.50;99.90;;;;;;5077562;28;20040;-71
2022/10/11 01:02:24;;;;;;;10.85;2.95;;;14.50;99.90;;;;;;5077332;28;20055;-71
2022/10/11 01:04:50;;;;;;;9.75;3.40;;;14.60;99.90;;;;;;5077277;28;20067;-71
2022/10/11 01:07:20;;;;;;;6.40;2.33;;;14.70;99.90;;;;;;5077350;28;20484;-71
2022/10/11 01:09:46;;;;;;;5.38;2.65;;;14.60;99.90;;;;;;5077281;28;20037;-71
2022/10/11 01:12:18;;;;;;;8.07;2.80;;;14.70;99.90;;;;;;5075578;28;20045;-71
2022/10/11 01:14:44;;;;;;;5.43;2.40;;;14.70;99.90;;;;;;5076837;28;20385;-71
2022/10/11 01:17:20;;;;;;;8.55;2.90;;;14.70;99.90;;;;;;5076124;28;20044;-72
2022/10/11 01:20:30;;;;;;;5.60;2.70;;;14.50;99.90;;;;;;5077279;28;20036;-71
2022/10/11 01:23:14;;;;;;;6.57;2.57;;;14.50;99.90;;;;;;5075311;28;20053;-71
2022/10/11 01:26:07;;;;;;;5.18;2.42;;;14.50;99.90;;;;;;5076744;28;20463;-75
2022/10/11 01:28:51;;;;;;;3.65;2.33;;;14.40;99.90;;;;;;5076969;28;20040;-71
2022/10/11 01:31:30;;;;;;;3.97;2.50;;;14.40;99.90;;;;;;5075693;28;20068;-71
2022/10/11 01:34:07;;;;;;;6.03;2.47;;;14.50;99.90;;;;;;5076928;28;20044;-71
2022/10/11 01:36:45;;;;;;;7.80;2.42;;;14.30;99.90;;;;;;5076720;28;20036;-75
2022/10/11 01:39:15;;;;;;;2.85;1.88;;;14.20;99.90;;;;;;5076612;28;20075;-71
2022/10/11 01:41:50;;;;;;;3.30;2.27;;;14.20;99.90;;;;;;5076424;28;20530;-75
2022/10/11 01:44:16;;;;;;;4.70;2.58;;;14.30;99.90;;;;;;5076644;28;20263;-71
2022/10/11 01:46:42;;;;;;;8.02;2.72;;;14.30;99.90;;;;;;5075354;28;20055;-72
2022/10/11 01:49:08;;;;;;;5.85;2.42;;;14.50;99.90;;;;;;5076703;28;20032;-75
2022/10/11 01:51:52;;;;;;;4.80;2.60;;;14.50;99.90;;;;;;5076622;28;20447;-71
2022/10/11 01:54:33;;;;;;;4.63;2.42;;;14.60;99.90;;;;;;5076396;28;20067;-71
2022/10/11 01:56:58;;;;;;;6.97;2.42;;;14.60;99.90;;;;;;5076220;28;20035;-71
2022/10/11 01:59:40;;;;;;;6.03;2.35;;;14.50;99.90;;;;;;5075026;28;20036;-71
2022/10/11 02:02:05;;;;;;;8.27;2.70;;;14.50;99.90;;;;;;5074892;28;20573;-71
2022/10/11 02:04:54;;;;;;;5.57;2.28;;;14.40;99.90;;;;;;5075840;28;20036;-75
2022/10/11 02:07:38;;;;;;;4.45;2.30;;;14.40;99.90;;;;;;5075828;28;20361;-75
2022/10/11 02:10:06;;;;;;;6.95;2.80;;;14.20;99.90;;;;;;5074877;28;20040;-75
2022/10/11 02:13:14;;;;;;;10.07;2.00;;;14.30;99.90;;;;;;5076127;28;20032;-74
2022/10/11 02:15:41;;;;;;;8.13;2.78;;;14.20;99.90;;;;;;5075541;28;20037;-71
2022/10/11 02:18:16;;;;;;;5.70;2.20;;;13.90;99.90;;;;;;5076067;28;20051;-71
2022/10/11 02:20:44;;;;;;;4.25;2.08;;;13.90;99.90;;;;;;5075963;28;20064;-71
2022/10/11 02:23:19;;;;;;;4.32;1.80;;;14.00;99.90;;;;;;5074573;28;20052;-70
2022/10/11 02:25:47;;;;;;;3.70;2.25;;;14.10;99.90;;;;;;5076057;28;20114;-71
2022/10/11 02:28:28;;;;;;;6.55;2.45;;;14.20;99.90;;;;;;5075584;28;20047;-74
2022/10/11 02:30:57;;;;;;;4.05;2.38;;;14.30;99.90;;;;;;5075737;28;20415;-71
2022/10/11 02:33:29;;;;;;;6.97;2.28;;;14.50;99.90;;;;;;5075712;28;20094;-76
2022/10/11 02:36:01;;;;;;;3.95;2.40;;;14.40;99.90;;;;;;5074547;28;20041;-77
2022/10/11 02:38:52;;;;;;;6.60;2.35;;;14.50;99.90;;;;;;5075257;28;20582;-74
2022/10/11 02:41:36;;;;;;;5.15;2.92;;;14.50;99.90;;;;;;5074850;28;20040;-76
2022/10/11 02:44:26;;;;;;;5.43;3.15;;;14.60;99.90;;;;;;5074128;28;20047;-71
2022/10/11 02:46:53;;;;;;;5.10;2.60;;;14.60;99.90;;;;;;5074227;28;20040;-71
2022/10/11 02:49:19;;;;;;;5.60;2.47;;;14.60;99.90;;;;;;5075289;28;20127;-74
2022/10/11 02:51:45;;;;;;;8.48;2.58;;;14.40;99.90;;;;;;5074080;28;20047;-71
2022/10/11 02:54:11;;;;;;;3.33;2.40;;;14.30;99.90;;;;;;5075182;28;20036;-72
2022/10/11 02:56:36;;;;;;;5.47;2.92;;;14.30;99.90;;;;;;5075271;28;20032;-71
2022/10/11 02:59:02;;;;;;;10.13;3.03;;;14.40;99.90;;;;;;5075245;28;20036;-71
2022/10/11 03:01:28;;;;;;;5.25;2.10;;;14.40;99.90;;;;;;5075166;28;20074;-75
2022/10/11 03:03:54;;;;;;;5.45;2.38;;;14.30;99.90;;;;;;5075396;28;20119;-72
2022/10/11 03:06:19;;;;;;;5.05;1.90;;;14.30;99.90;;;;;;5075222;28;20040;-73
2022/10/11 03:08:45;;;;;;;4.88;2.45;;;14.20;99.90;;;;;;5075032;28;20048;-71
2022/10/11 03:11:11;;;;;;;2.60;2.00;;;14.20;99.90;;;;;;5074950;28;20044;-71
2022/10/11 03:13:37;;;;;;;5.78;2.30;;;14.30;99.90;;;;;;5074865;28;20036;-71
2022/10/11 03:16:03;;;;;;;3.55;1.95;;;14.30;99.90;;;;;;5073951;28;20044;-75
2022/10/11 03:18:29;;;;;;;8.80;2.30;;;14.20;99.90;;;;;;5074932;28;20040;-71
2022/10/11 03:20:55;;;;;;;5.57;2.30;;;14.10;99.90;;;;;;5074854;28;20062;-71
2022/10/11 03:23:21;;;;;;;3.63;2.28;;;14.30;99.90;;;;;;5074518;28;20088;-74
2022/10/11 03:25:47;;;;;;;8.10;2.90;;;14.20;99.90;;;;;;5074533;28;20507;-71
2022/10/11 03:28:12;;;;;;;7.15;2.67;;;14.20;99.90;;;;;;5074676;28;20036;-76
2022/10/11 03:30:38;;;;;;;5.03;2.70;;;14.30;99.90;;;;;;5074634;28;20066;-71
2022/10/11 03:33:04;;;;;;;4.43;2.90;;;14.30;99.90;;;;;;5074604;28;20108;-71
2022/10/11 03:35:29;;;;;;;4.28;2.20;;;14.30;99.90;;;;;;5074484;28;20045;-71
2022/10/11 03:37:55;;;;;;;5.85;2.65;;;14.40;99.90;;;;;;5074246;28;20040;-73
2022/10/11 03:40:21;;;;;;;4.53;2.58;;;14.40;99.90;;;;;;5073354;28;20126;-71
2022/10/11 03:42:47;;;;;;;10.48;2.67;;;14.40;99.90;;;;;;5072912;28;20102;-71
2022/10/11 03:45:13;;;;;;;9.55;2.95;;;14.40;99.90;;;;;;5065284;28;20101;-71
2022/10/11 03:47:39;;;;;;;6.53;3.20;;;14.30;99.90;;;;;;5052287;28;20401;-72
2022/10/11 03:50:06;;;;;;;5.63;2.88;;;14.20;99.90;;;;;;5053537;28;20036;-74
2022/10/11 03:52:32;;;;;;;10.40;3.10;;;14.30;99.90;;;;;;5054522;28;20033;-71
2022/10/11 03:54:58;;;;;;;12.15;3.10;;;14.30;99.90;;;;;;5054198;28;20041;-75
2022/10/11 03:57:23;;;;;;;5.97;2.65;;;14.30;99.90;;;;;;5054155;28;20049;-73
2022/10/11 03:59:49;;;;;;;5.22;2.70;;;14.50;99.90;;;;;;5054065;28;20094;-72
2022/10/11 04:02:15;;;;;;;6.88;2.70;;;14.40;99.90;;;;;;5054140;28;20404;-71
2022/10/11 04:04:41;;;;;;;6.72;2.72;;;14.30;99.90;;;;;;5052921;28;20033;-72
2022/10/11 04:07:07;;;;;;;5.78;2.92;;;14.20;99.90;;;;;;5052868;28;20040;-71
2022/10/11 04:09:34;;;;;;;7.03;2.70;;;14.20;99.90;;;;;;5052874;28;20064;-75
2022/10/11 04:11:59;;;;;;;8.52;3.55;;;14.30;99.90;;;;;;5053891;28;20037;-71
2022/10/11 04:14:25;;;;;;;9.07;3.10;;;14.30;99.90;;;;;;5052894;28;20033;-72
2022/10/11 04:16:52;;;;;;;8.95;3.25;;;14.20;99.90;;;;;;5053918;28;20513;-72
2022/10/11 04:19:17;;;;;;;4.43;2.50;;;14.10;99.90;;;;;;5054193;28;20041;-75
2022/10/11 04:21:43;;;;;;;4.32;2.72;;;14.10;99.90;;;;;;5052509;28;20095;-72
2022/10/11 04:24:11;;;;;;;12.48;2.70;;;13.90;99.90;;;;;;5053823;28;20128;-71
2022/10/11 04:26:37;;;;;;;4.93;2.67;;;13.90;99.90;;;;;;5052624;28;20064;-75
2022/10/11 04:29:03;;;;;;;6.45;3.00;;;13.90;99.90;;;;;;5053717;28;20086;-71
2022/10/11 04:31:29;;;;;;;4.43;2.92;;;13.90;99.90;;;;;;5064921;28;20064;-71
2022/10/11 04:33:56;;;;;;;6.70;3.05;;;13.90;99.90;;;;;;5073491;28;20072;-71
2022/10/11 04:36:22;;;;;;;7.05;2.67;;;13.90;99.90;;;;;;5073691;28;20040;-70
2022/10/11 04:38:48;;;;;;;9.38;3.45;;;13.80;99.90;;;;;;5073734;28;20117;-74
2022/10/11 04:41:15;;;;;;;4.68;3.13;;;13.80;99.90;;;;;;5072707;28;20502;-71
2022/10/11 04:43:41;;;;;;;9.80;3.13;;;13.90;99.90;;;;;;5073802;28;20059;-71
2022/10/11 04:46:08;;;;;;;6.78;3.35;;;14.00;99.90;;;;;;5075179;28;20055;-72
2022/10/11 04:48:33;;;;;;;11.77;3.30;;;14.00;99.90;;;;;;5071184;28;20038;-73
2022/10/11 04:50:59;;;;;;;11.15;4.22;;;14.00;99.90;;;;;;5072557;28;20120;-72
2022/10/11 04:53:25;;;;;;;7.35;3.47;;;14.10;99.90;;;;;;5068549;28;20032;-71
2022/10/11 04:56:06;;;;;;;7.45;3.72;;;14.10;99.90;;;;;;5073030;28;20040;-70
2022/10/11 04:58:33;;;;;;;5.68;3.15;;;14.10;99.90;;;;;;5071293;28;20090;-70
2022/10/11 05:00:59;;;;;;;6.40;3.08;;;14.10;99.90;;;;;;5073490;28;20041;-70
2022/10/11 05:03:26;;;;;;;4.68;2.97;;;14.10;99.90;;;;;;5071758;28;20048;-70
2022/10/11 05:05:52;;;;;;;7.78;3.30;;;14.10;99.90;;;;;;5072111;28;20060;-71
2022/10/11 05:08:18;;;;;;;5.75;3.22;;;14.00;99.90;;;;;;5073666;28;20044;-71
2022/10/11 05:10:54;;;;;;;8.15;3.85;;;14.00;99.90;;;;;;5072862;28;20036;-73
2022/10/11 05:13:20;;;;;;;11.10;4.05;;;14.00;99.90;;;;;;5072050;28;20143;-71
2022/10/11 05:15:45;;;;;;;9.93;3.78;;;14.00;99.90;;;;;;5073300;28;20564;-75
2022/10/11 05:18:11;;;;;;;6.15;3.40;;;13.80;99.90;;;;;;5071833;28;20044;-78
2022/10/11 05:20:37;;;;;;;7.03;3.35;;;13.70;99.90;;;;;;5072987;28;20041;-71
2022/10/11 05:23:03;;;;;;;7.13;3.38;;;13.50;99.90;;;;;;5072712;28;20403;-71
2022/10/11 05:25:29;;;;;;;10.85;3.20;;;13.50;99.90;;;;;;5072153;28;20036;-71
2022/10/11 05:27:55;;;;;;;6.25;3.13;;;13.60;99.90;;;;;;5073583;28;20052;-71
2022/10/11 05:30:20;;;;;;;7.88;3.03;;;13.60;99.90;;;;;;5073226;28;20063;-71
2022/10/11 05:32:46;;;;;;;5.57;3.03;;;13.70;99.90;;;;;;5072199;28;20048;-71
2022/10/11 05:35:13;;;;;;;4.72;2.75;;;13.80;99.90;;;;;;5071804;28;20029;-71
2022/10/11 05:37:39;;;;;;;7.97;3.03;;;13.80;99.90;;;;;;5071899;28;20051;-71
2022/10/11 05:40:05;;;;;;;7.68;3.00;;;13.50;99.90;;;;;;5074888;28;20500;-71
2022/10/11 05:42:31;;;;;;;7.18;3.72;;;13.40;99.90;;;;;;5076449;28;20453;-71
2022/10/11 05:44:56;;;;;;;5.13;3.15;;;13.50;99.90;;;;;;5076627;28;20032;-70
2022/10/11 05:47:22;;;;;;;6.25;3.03;;;13.50;99.90;;;;;;5076468;28;20055;-71
2022/10/11 05:49:48;;;;;;;11.82;2.75;;;13.50;99.90;;;;;;5075354;28;20165;-70
2022/10/11 05:52:18;;;;;;;9.40;3.20;;;13.50;99.90;;;;;;5075296;28;20047;-70
2022/10/11 05:54:44;;;;;;;4.50;2.72;;;13.50;99.90;;;;;;5076535;28;20571;-73
2022/10/11 05:57:10;;;;;;;4.80;2.90;;;13.50;99.90;;;;;;5076063;28;20048;-71
2022/10/11 05:59:36;;;;;;;9.38;3.30;;;13.50;99.90;;;;;;5076484;28;20518;-71
2022/10/11 06:02:02;;;;;;;5.15;2.70;;;13.50;99.90;;;;;;5076322;28;20419;-73
2022/10/11 06:04:28;;;;;;;9.63;3.08;;;13.40;99.90;;;;;;5076512;28;20036;-75
2022/10/11 06:06:54;;;;;;;7.78;3.17;;;13.40;99.90;;;;;;5075636;28;20570;-71
2022/10/11 06:09:20;;;;;;;5.13;2.95;;;13.40;99.90;;;;;;5067068;28;20075;-71
2022/10/11 06:11:46;;;;;;;4.82;2.78;;;13.60;99.90;;;;;;5070216;28;20070;-71
2022/10/11 06:14:11;;;;;;;6.13;3.35;;;13.50;99.90;;;;;;5056883;28;20128;-77
2022/10/11 06:16:37;;;;;;;5.68;3.55;;;13.60;99.90;;;;;;5068862;28;20044;-71
2022/10/11 06:19:03;;;;;;;4.57;2.95;;;13.50;99.90;;;;;;5059956;28;20048;-70
2022/10/11 06:21:30;;;;;;;12.02;3.70;;;13.70;99.90;;;;;;5073200;28;20043;-71
2022/10/11 06:23:55;;;;;;;7.32;3.95;;;13.80;99.90;;;;;;5073884;28;20056;-76
2022/10/11 06:26:21;;;;;;;9.73;4.10;;;13.80;99.90;;;;;;5074321;28;20077;-70
2022/10/11 06:28:47;;;;;;;6.43;3.67;;;13.90;99.90;;;;;;5074048;28;20053;-70
2022/10/11 06:31:13;;;;;;;9.48;3.78;;;13.90;99.90;;;;;;5074741;28;20041;-71
2022/10/11 06:33:39;;;;;;;8.38;4.13;;;13.80;99.90;;;;;;5074821;28;20119;-77
2022/10/11 06:36:13;;;;;;;6.82;3.97;;;13.90;99.90;;;;;;5074498;28;20119;-70
2022/10/11 06:38:39;;;;;;;10.52;4.35;;;13.80;99.90;;;;;;5073954;28;20037;-77
2022/10/11 06:41:10;;;;;;;7.97;3.47;;;13.90;99.90;;;;;;5075210;28;20047;-78
2022/10/11 06:43:38;;;;;;;11.43;3.95;;;13.80;99.90;;;;;;5068855;28;20064;-70
2022/10/11 06:46:04;;;;;;;7.90;4.13;;;13.80;99.90;;;;;;5056052;28;20052;-78
2022/10/11 06:48:30;;;;;;;10.45;4.28;;;13.60;99.90;;;;;;5055717;28;20366;-70
2022/10/11 06:51:00;;;;;;;11.73;4.10;;;13.60;99.90;;;;;;5054526;28;20040;-74
2022/10/11 06:53:26;;;;;;;7.85;4.63;;;13.60;99.90;;;;;;5054454;28;20120;-77
2022/10/11 06:55:52;;;;;;;5.88;3.38;;;13.50;99.90;;;;;;5055442;28;20103;-70
2022/10/11 06:58:18;;;;;;;8.90;3.40;;;13.50;99.90;;;;;;5055769;28;20415;-71
2022/10/11 07:00:44;;;;;;;7.90;3.95;;;13.40;99.90;;;;;;5055288;28;20093;-76
2022/10/11 07:03:10;;;;;;;6.13;3.15;;;13.40;99.90;;;;;;5055255;28;20075;-77
2022/10/11 07:05:35;;;;;;;5.93;2.88;;;13.40;99.90;;;;;;5055376;28;20428;-78
2022/10/11 07:08:01;;;;;;;7.85;3.03;;;13.50;99.90;;;;;;5055397;28;20432;-78
2022/10/11 07:10:27;;;;;;;5.45;2.92;;;13.60;99.90;;;;;;5055206;28;20036;-72
2022/10/11 07:12:53;;;;;;;7.20;3.65;;;13.60;99.90;;;;;;5055295;28;20044;-71
2022/10/11 07:15:19;;;;;;;11.63;3.33;;;13.70;99.90;;;;;;5055263;28;20067;-77
2022/10/11 07:17:44;;;;;;;6.10;3.15;;;13.90;99.90;;;;;;5055132;28;20396;-70
2022/10/11 07:20:11;;;;;;;6.80;3.42;;;13.80;99.90;;;;;;5055259;28;20488;-78
2022/10/11 07:22:37;;;;;;;10.20;3.60;;;13.80;99.90;;;;;;5055079;28;20503;-76
2022/10/11 07:25:03;;;;;;;8.57;4.15;;;13.90;99.90;;;;;;5055003;28;20067;-77
2022/10/11 07:27:29;;;;;;;9.35;4.15;;;14.30;99.90;;;;;;5054746;28;20049;-75
2022/10/11 07:29:54;;;;;;;5.13;3.67;;;14.50;99.90;;;;;;5070537;28;20529;-75
2022/10/11 07:32:20;;;;;;;8.98;4.38;;;14.60;99.90;;;;;;5074659;28;20047;-77
2022/10/11 07:34:46;;;;;;;7.93;4.07;;;14.80;99.90;;;;;;5074928;28;20546;-77
2022/10/11 07:37:12;;;;;;;11.00;3.58;;;14.90;99.90;;;;;;5073346;28;20131;-77
2022/10/11 07:39:37;;;;;;;8.73;4.55;;;15.00;99.90;;;;;;5074332;28;20093;-72
2022/10/11 07:42:03;;;;;;;11.75;4.55;;;15.10;99.90;;;;;;5073189;28;20489;-79
2022/10/11 07:44:31;;;;;;;11.48;5.13;;;15.20;99.90;;;;;;5074480;28;20048;-70
2022/10/11 07:46:56;;;;;;;10.18;4.88;;;15.30;99.90;;;;;;5073642;28;20119;-78
2022/10/11 07:49:22;;;;;;;12.45;4.65;;;15.30;99.90;;;;;;5070071;28;20436;-75
2022/10/11 07:51:51;;;;;;;11.45;4.30;;;15.30;99.90;;;;;;5061117;28;20040;-79
2022/10/11 07:54:17;;;;;;;12.00;4.85;;;15.20;99.90;;;;;;5071156;28;20040;-78
2022/10/11 07:56:43;;;;;;;15.35;6.30;;;15.10;99.90;;;;;;5073837;28;20119;-78
2022/10/11 07:59:11;;;;;;;15.57;5.22;;;15.30;99.90;;;;;;5072877;28;20052;-72
2022/10/11 08:01:37;;;;;;;15.77;6.00;;;15.50;99.90;;;;;;5072683;28;20045;-78
2022/10/11 08:04:03;;;;;;;15.43;6.65;;;15.80;99.90;;;;;;5073801;28;20537;-78
2022/10/11 08:06:31;;;;;;;14.93;6.57;;;15.80;99.90;;;;;;5074089;28;20152;-71
2022/10/11 08:08:59;;;;;;;23.05;7.65;;;15.70;99.90;;;;;;5073238;28;20063;-71
2022/10/11 08:11:30;;;;;;;11.52;7.05;;;15.80;99.90;;;;;;5073555;28;20036;-76
2022/10/11 08:13:58;;;;;;;15.07;6.55;;;15.90;99.90;;;;;;5073052;28;20036;-76
2022/10/11 08:16:24;;;;;;;10.98;6.63;;;15.90;99.90;;;;;;5072303;28;20504;-76
2022/10/11 08:18:50;;;;;;;16.08;6.85;;;16.00;99.90;;;;;;5072830;28;20043;-72
2022/10/11 08:21:17;;;;;;;13.50;6.75;;;15.90;99.90;;;;;;5070524;28;20596;-76
2022/10/11 08:23:43;;;;;;;13.25;6.05;;;15.70;99.90;;;;;;5071885;28;20048;-75
2022/10/11 08:26:09;;;;;;;12.43;6.60;;;15.70;99.90;;;;;;5071934;28;20381;-75
2022/10/11 08:28:35;;;;;;;16.02;7.10;;;15.70;99.90;;;;;;5071896;28;20556;-78
2022/10/11 08:31:01;;;;;;;16.58;8.63;;;15.60;99.90;;;;;;5072321;28;20036;-78
2022/10/11 08:33:27;;;;;;;24.88;7.93;;;15.60;99.90;;;;;;5072931;28;20040;-73
2022/10/11 08:35:53;;;;;;;17.33;6.85;;;15.50;99.90;;;;;;5073770;28;20492;-74
2022/10/11 08:38:20;;;;;;;15.02;7.93;;;15.50;99.90;;;;;;5073503;28;20036;-74
2022/10/11 08:40:48;;;;;;;14.55;7.00;;;15.50;99.90;;;;;;5073494;28;20055;-75
2022/10/11 08:43:54;;;;;;;12.18;6.97;;;15.60;99.90;;;;;;5073782;28;20040;-75
2022/10/11 08:46:29;;;;;;;17.10;7.63;;;15.80;99.90;;;;;;5051636;28;20126;-76
2022/10/11 08:48:56;;;;;;;12.48;7.60;;;15.70;99.90;;;;;;5072852;28;20120;-76
2022/10/11 08:51:34;;;;;;;16.77;7.07;;;15.80;99.90;;;;;;5072419;28;20441;-74
2022/10/11 08:54:31;;;;;;;14.73;6.45;;;15.60;99.90;;;;;;5073538;28;20036;-75
2022/10/11 08:56:56;;;;;;;16.15;7.30;;;15.70;99.90;;;;;;5073421;28;20028;-75
2022/10/11 08:59:27;;;;;;;16.33;7.43;;;15.60;99.90;;;;;;5073796;28;20097;-76
2022/10/11 09:02:14;;;;;;;15.55;6.88;;;15.60;99.90;;;;;;5072221;28;20422;-75
2022/10/11 09:04:39;;;;;;;12.57;6.30;;;15.70;99.90;;;;;;5073778;28;20530;-74
2022/10/11 09:07:25;;;;;;;13.20;6.78;;;16.00;99.90;;;;;;5072141;28;20044;-78
2022/10/11 09:10:21;;;;;;;11.25;6.38;;;16.00;99.90;;;;;;5041192;28;20041;-77
2022/10/11 09:13:04;;;;;;;16.40;6.97;;;16.00;99.90;;;;;;5073288;28;20048;-77
2022/10/11 09:15:48;;;;;;;17.67;7.20;;;15.90;99.90;;;;;;5075655;28;20404;-77
2022/10/11 09:18:54;;;;;;;14.30;7.15;;;16.00;99.90;;;;;;5077465;28;20174;-77
2022/10/11 09:21:46;;;;;;;14.23;6.43;;;16.10;99.90;;;;;;5074051;28;20036;-77
2022/10/11 09:24:15;;;;;;;12.30;6.70;;;16.40;99.90;;;;;;5077137;28;20059;-77
2022/10/11 09:26:44;;;;;;;12.13;6.50;;;16.80;99.90;;;;;;5075653;28;20032;-78
2022/10/11 09:29:27;;;;;;;14.52;6.82;;;17.20;99.90;;;;;;5077085;28;20044;-78
2022/10/11 09:31:54;;;;;;;15.85;7.28;;;17.60;99.90;;;;;;5077346;28;20040;-78
2022/10/11 09:34:25;;;;;;;17.10;6.82;;;17.60;99.90;;;;;;5076636;28;20113;-78
2022/10/11 09:37:20;;;;;;;16.95;6.65;;;17.90;99.90;;;;;;5076872;28;20511;-77
2022/10/11 09:40:29;;;;;;;11.13;6.03;;;18.10;99.90;;;;;;5076948;28;20170;-77
2022/10/11 09:42:55;;;;;;;14.15;6.13;;;18.00;99.90;;;;;;5066167;28;20036;-78
2022/10/11 09:45:21;;;;;;;11.25;6.03;;;17.80;99.90;;;;;;5076297;28;20074;-78
2022/10/11 09:47:50;;;;;;;10.10;5.32;;;17.80;99.90;;;;;;5076995;28;20060;-77
2022/10/11 09:50:24;;;;;;;13.65;6.65;;;17.80;99.90;;;;;;5075499;28;20037;-74
2022/10/11 09:52:59;;;;;;;13.38;6.38;;;17.80;99.90;;;;;;5072665;28;20044;-75
2022/10/11 09:55:32;;;;;;;13.27;7.20;;;17.60;99.90;;;;;;5076167;28;20040;-76
2022/10/11 09:57:59;;;;;;;10.60;5.85;;;17.50;99.90;;;;;;5075919;28;20047;-74
2022/10/11 10:00:27;;;;;;;12.27;6.07;;;17.50;99.90;;;;;;5076467;28;20036;-77
2022/10/11 10:02:56;;;;;;;12.85;6.10;;;17.60;99.90;;;;;;5075065;28;20450;-76
2022/10/11 10:05:34;;;;;;;14.85;7.32;;;17.50;99.90;;;;;;5076348;28;20032;-75
2022/10/11 10:08:21;;;;;;;15.27;6.57;;;17.40;99.90;;;;;;5075982;28;20043;-76
2022/10/11 10:10:50;;;;;;;14.38;6.10;;;17.40;99.90;;;;;;5073619;28;20032;-73
2022/10/11 10:13:53;;;;;;;11.05;6.03;;;17.70;99.90;;;;;;5076509;28;20054;-75
2022/10/11 10:16:28;;;;;;;12.43;5.72;;;17.90;99.90;;;;;;5076073;28;20049;-76
2022/10/11 10:18:59;;;;;;;11.93;5.78;;;18.00;99.90;;;;;;5075994;28;20036;-76
2022/10/11 10:21:29;;;;;;;12.30;5.50;;;18.10;99.90;;;;;;5076109;28;20106;-77
2022/10/11 10:23:58;;;;;;;7.93;4.85;;;18.10;99.90;;;;;;5076302;28;20554;-78
2022/10/11 10:26:26;;;;;;;9.68;5.32;;;18.10;99.90;;;;;;5074637;28;20066;-77
2022/10/11 10:28:57;;;;;;;12.77;5.93;;;17.90;99.90;;;;;;5076072;28;20044;-77
2022/10/11 10:31:29;;;;;;;14.77;5.32;;;17.90;99.90;;;;;;5076037;28;20492;-77
2022/10/11 10:33:56;;;;;;;14.75;5.78;;;17.90;99.90;;;;;;5074639;28;20032;-76
2022/10/11 10:36:35;;;;;;;14.50;5.50;;;17.80;99.90;;;;;;5074162;28;20033;-73
2022/10/11 10:39:13;;;;;;;14.68;4.93;;;17.80;99.90;;;;;;5075768;28;20086;-76
2022/10/11 10:41:39;;;;;;;11.60;5.47;;;17.70;99.90;;;;;;5075655;28;20484;-77
2022/10/11 10:44:09;;;;;;;11.68;5.93;;;17.60;99.90;;;;;;5075655;28;20048;-76
2022/10/11 10:46:50;;;;;;;12.27;5.93;;;17.60;99.90;;;;;;5074394;28;20047;-73
2022/10/11 10:49:30;;;;;;;13.98;6.03;;;17.70;99.90;;;;;;5065233;28;20072;-76
2022/10/11 10:52:17;;;;;;;9.68;5.63;;;17.70;99.90;;;;;;5063593;28;20094;-76
2022/10/11 10:54:43;;;;;;;10.45;6.03;;;17.60;99.90;;;;;;5074155;28;20059;-75
2022/10/11 10:57:35;;;;;;;12.98;6.05;;;17.60;99.90;;;;;;5074250;28;20500;-75
2022/10/11 11:00:15;;;;;;;14.35;6.18;;;17.70;99.90;;;;;;5058473;28;20044;-76
2022/10/11 11:03:11;;;;;;;11.90;5.93;;;17.60;99.90;;;;;;5055340;28;20496;-75
2022/10/11 11:06:04;;;;;;;10.68;5.97;;;17.60;99.90;;;;;;5055080;28;20163;-74
2022/10/11 11:08:56;;;;;;;7.82;5.20;;;17.60;99.90;;;;;;5053937;28;20037;-76
2022/10/11 11:11:39;;;;;;;16.70;6.57;;;17.80;99.90;;;;;;5053938;28;20484;-75
2022/10/11 11:14:20;;;;;;;12.07;5.85;;;17.70;99.90;;;;;;5055375;28;20045;-75
2022/10/11 11:17:21;;;;;;;12.02;5.25;;;17.70;99.90;;;;;;5055169;28;20033;-75
2022/10/11 11:20:23;;;;;;;11.05;5.78;;;17.80;99.90;;;;;;5045440;28;20045;-75
2022/10/11 11:23:01;;;;;;;12.88;7.07;;;17.90;99.90;;;;;;5053054;28;20705;-72
2022/10/11 11:25:42;;;;;;;9.73;4.85;;;18.10;99.90;;;;;;5053667;28;20036;-75
2022/10/11 11:28:45;;;;;;;16.25;4.93;;;18.10;99.90;;;;;;5053350;28;20045;-73
2022/10/11 11:32:09;;;;;;;9.95;5.05;;;18.10;99.90;;;;;;5051237;28;20060;-74
2022/10/11 11:34:43;;;;;;;10.38;4.78;;;18.30;99.90;;;;;;5035874;28;20043;-77
2022/10/11 11:37:32;;;;;;;9.10;4.55;;;18.00;99.90;;;;;;5060949;28;20048;-77
2022/10/11 11:40:23;;;;;;;9.70;4.97;;;18.10;99.90;;;;;;5074248;28;20036;-77
2022/10/11 11:43:03;;;;;;;7.53;3.95;;;18.00;99.90;;;;;;5072937;28;20052;-77
2022/10/11 11:45:54;;;;;;;8.13;3.85;;;18.20;99.90;;;;;;5074169;28;20052;-72
2022/10/11 11:48:23;;;;;;;9.93;4.28;;;18.20;99.90;;;;;;5073333;28;20051;-77
2022/10/11 11:51:08;;;;;;;9.52;4.93;;;18.30;99.90;;;;;;5072616;28;20067;-77
2022/10/11 11:53:43;;;;;;;12.45;4.78;;;18.10;99.90;;;;;;5070847;28;20048;-74
2022/10/11 11:56:32;;;;;;;9.23;4.30;;;18.10;99.90;;;;;;5061279;28;20037;-73
2022/10/11 11:59:11;;;;;;;7.55;4.43;;;18.40;99.90;;;;;;5052078;28;20224;-74
2022/10/11 12:01:58;;;;;;;10.02;4.53;;;18.50;99.90;;;;;;5051928;28;20041;-77
2022/10/11 12:04:40;;;;;;;8.55;4.30;;;18.40;99.90;;;;;;5052283;28;20052;-77
2022/10/11 12:07:12;;;;;;;10.32;3.72;;;18.60;99.90;;;;;;5052799;28;20136;-76
2022/10/11 12:09:40;;;;;;;8.70;4.30;;;18.70;99.90;;;;;;5053917;28;20041;-77
2022/10/11 12:12:08;;;;;;;8.90;3.88;;;18.80;99.90;;;;;;5052505;28;20037;-73
2022/10/11 12:14:40;;;;;;;9.35;4.80;;;18.90;99.90;;;;;;5051863;28;20037;-71
2022/10/11 12:17:15;;;;;;;7.43;3.83;;;18.80;99.90;;;;;;5051214;28;20039;-75
2022/10/11 12:20:02;;;;;;;11.65;4.93;;;18.90;99.90;;;;;;5053042;28;20037;-72
2022/10/11 12:22:28;;;;;;;11.48;4.15;;;18.90;99.90;;;;;;5050197;28;20138;-71
2022/10/11 12:24:55;;;;;;;11.77;4.70;;;18.80;99.90;;;;;;5053250;28;20061;-77
2022/10/11 12:27:42;;;;;;;8.40;3.55;;;18.80;99.90;;;;;;5051975;28;20044;-72
2022/10/11 12:30:49;;;;;;;11.38;4.40;;;19.00;99.90;;;;;;5051669;28;20068;-75
2022/10/11 12:33:29;;;;;;;11.05;4.32;;;18.90;99.90;;;;;;5052074;28;20095;-78
2022/10/11 12:36:22;;;;;;;11.47;5.00;;;19.00;99.90;;;;;;5050213;28;20497;-71
2022/10/11 12:39:19;;;;;;;11.70;4.35;;;19.10;99.90;;;;;;5052112;28;20045;-72
2022/10/11 12:41:54;;;;;;;7.00;3.90;;;19.10;99.90;;;;;;5050193;28;20547;-72
2022/10/11 12:44:27;;;;;;;8.52;4.13;;;19.00;99.90;;;;;;5052097;28;20076;-73
2022/10/11 12:46:52;;;;;;;8.82;4.38;;;19.00;99.90;;;;;;5052130;28;20033;-73
2022/10/11 12:50:01;;;;;;;8.95;4.70;;;19.10;99.90;;;;;;5052511;28;20128;-73
2022/10/11 12:52:54;;;;;;;8.65;4.00;;;19.10;99.90;;;;;;5057755;28;20397;-78
2022/10/11 12:56:09;;;;;;;16.15;4.13;;;18.80;99.90;;;;;;5056568;28;20032;-78
2022/10/11 12:58:40;;;;;;;6.30;3.70;;;18.90;99.90;;;;;;5057711;28;20091;-77
2022/10/11 13:01:10;;;;;;;8.77;4.32;;;19.10;99.90;;;;;;5057754;28;20072;-72
2022/10/11 13:03:56;;;;;;;8.80;4.50;;;19.20;99.90;;;;;;5056573;28;20500;-75
2022/10/11 13:06:26;;;;;;;7.78;4.03;;;19.30;99.90;;;;;;5056817;28;20045;-73
2022/10/11 13:09:04;;;;;;;8.77;4.05;;;19.10;99.90;;;;;;5056869;28;20052;-73